Terminal Aerodrome Forecast
Issued by NWS Northern Indiana

Home | Current Version | Previous Version | Graphics & Text | Print | Product List | Glossary On
Versions: 1 2 3 4 5 6 7 8 9 10 11 12 13 14
000
FTUS43 KIWX 282324
TAFFWA
TAF
KFWA 282324Z 2900/2924 24010KT 4SM TSRA BR BKN040CB
     FM290200 26008KT P6SM SCT080
     FM291600 25015G22KT P6SM SCT050
     FM292300 25012KT P6SM SCT050=

USA.gov is the U.S. government's official web portal to all federal, state and local government web resources and services.